sensor_id;sensor_type;location;lat;lon;timestamp;temperature;humidity
530;DHT22;251;48.704;9.210;2023-05-31T00:01:33;13.70;18.90
530;DHT22;251;48.704;9.210;2023-05-31T00:04:01;13.60;18.90
530;DHT22;251;48.704;9.210;2023-05-31T00:06:28;13.80;19.60
530;DHT22;251;48.704;9.210;2023-05-31T00:08:55;13.80;19.20
530;DHT22;251;48.704;9.210;2023-05-31T00:11:22;13.70;17.80
530;DHT22;251;48.704;9.210;2023-05-31T00:13:49;13.70;19.00
530;DHT22;251;48.704;9.210;2023-05-31T00:16:15;13.40;15.90
530;DHT22;251;48.704;9.210;2023-05-31T00:18:42;13.80;16.40
530;DHT22;251;48.704;9.210;2023-05-31T00:21:10;13.50;18.80
530;DHT22;251;48.704;9.210;2023-05-31T00:23:37;13.70;17.60
530;DHT22;251;48.704;9.210;2023-05-31T00:26:04;13.50;18.50
530;DHT22;251;48.704;9.210;2023-05-31T00:28:31;13.60;14.80
530;DHT22;251;48.704;9.210;2023-05-31T00:30:58;13.50;16.40
530;DHT22;251;48.704;9.210;2023-05-31T00:33:25;13.90;18.70
530;DHT22;251;48.704;9.210;2023-05-31T00:35:52;13.80;15.30
530;DHT22;251;48.704;9.210;2023-05-31T00:49:37;13.60;16.50
530;DHT22;251;48.704;9.210;2023-05-31T00:52:04;13.70;15.80
530;DHT22;251;48.704;9.210;2023-05-31T00:54:31;13.40;14.80
530;DHT22;251;48.704;9.210;2023-05-31T00:56:58;13.40;21.40
530;DHT22;251;48.704;9.210;2023-05-31T00:59:27;13.30;17.30
530;DHT22;251;48.704;9.210;2023-05-31T01:01:55;13.30;20.30
530;DHT22;251;48.704;9.210;2023-05-31T01:04:24;13.00;21.20
530;DHT22;251;48.704;9.210;2023-05-31T01:06:52;13.00;20.70
530;DHT22;251;48.704;9.210;2023-05-31T01:09:20;13.00;20.60
530;DHT22;251;48.704;9.210;2023-05-31T01:11:56;12.70;20.20
530;DHT22;251;48.704;9.210;2023-05-31T01:14:32;12.80;21.10
530;DHT22;251;48.704;9.210;2023-05-31T01:17:09;12.70;21.60
530;DHT22;251;48.704;9.210;2023-05-31T01:19:45;12.90;22.80
530;DHT22;251;48.704;9.210;2023-05-31T01:22:26;12.70;22.00
530;DHT22;251;48.704;9.210;2023-05-31T01:28:09;12.40;21.30
530;DHT22;251;48.704;9.210;2023-05-31T01:30:37;12.30;20.50
530;DHT22;251;48.704;9.210;2023-05-31T01:33:04;12.10;22.30
530;DHT22;251;48.704;9.210;2023-05-31T01:35:34;12.50;21.80
530;DHT22;251;48.704;9.210;2023-05-31T01:38:01;12.20;23.10
530;DHT22;251;48.704;9.210;2023-05-31T01:40:28;12.00;23.50
530;DHT22;251;48.704;9.210;2023-05-31T01:42:55;12.00;24.30
530;DHT22;251;48.704;9.210;2023-05-31T01:45:24;12.00;23.20
530;DHT22;251;48.704;9.210;2023-05-31T01:47:58;11.70;22.50
530;DHT22;251;48.704;9.210;2023-05-31T01:50:25;11.90;22.80
530;DHT22;251;48.704;9.210;2023-05-31T01:52:53;11.90;24.00
530;DHT22;251;48.704;9.210;2023-05-31T01:55:20;11.80;24.60
530;DHT22;251;48.704;9.210;2023-05-31T01:57:50;11.90;24.10
530;DHT22;251;48.704;9.210;2023-05-31T02:00:19;11.80;25.80
530;DHT22;251;48.704;9.210;2023-05-31T02:02:48;11.60;25.80
530;DHT22;251;48.704;9.210;2023-05-31T02:05:17;11.60;25.10
530;DHT22;251;48.704;9.210;2023-05-31T02:07:44;11.40;26.10
530;DHT22;251;48.704;9.210;2023-05-31T02:10:14;11.50;26.10
530;DHT22;251;48.704;9.210;2023-05-31T02:12:41;11.40;26.60
530;DHT22;251;48.704;9.210;2023-05-31T02:15:08;11.50;26.80
530;DHT22;251;48.704;9.210;2023-05-31T02:17:37;11.10;25.90
530;DHT22;251;48.704;9.210;2023-05-31T02:20:09;11.20;26.50
530;DHT22;251;48.704;9.210;2023-05-31T02:22:38;11.20;26.30
530;DHT22;251;48.704;9.210;2023-05-31T02:25:07;11.20;26.70
530;DHT22;251;48.704;9.210;2023-05-31T02:27:33;11.40;27.50
530;DHT22;251;48.704;9.210;2023-05-31T02:30:00;11.00;27.30
530;DHT22;251;48.704;9.210;2023-05-31T02:32:28;10.90;26.20
530;DHT22;251;48.704;9.210;2023-05-31T02:34:54;10.80;26.20
530;DHT22;251;48.704;9.210;2023-05-31T02:37:23;10.80;26.30
530;DHT22;251;48.704;9.210;2023-05-31T02:39:49;10.70;26.50
530;DHT22;251;48.704;9.210;2023-05-31T02:42:18;11.00;26.20
530;DHT22;251;48.704;9.210;2023-05-31T02:44:46;10.80;26.40
530;DHT22;251;48.704;9.210;2023-05-31T02:47:12;10.70;27.20
530;DHT22;251;48.704;9.210;2023-05-31T02:49:39;10.90;27.40
530;DHT22;251;48.704;9.210;2023-05-31T02:52:07;11.00;27.70
530;DHT22;251;48.704;9.210;2023-05-31T02:54:53;10.80;27.30
530;DHT22;251;48.704;9.210;2023-05-31T02:57:24;10.50;27.00
530;DHT22;251;48.704;9.210;2023-05-31T02:59:55;10.60;27.50
530;DHT22;251;48.704;9.210;2023-05-31T03:02:22;10.80;26.50
530;DHT22;251;48.704;9.210;2023-05-31T03:04:49;10.50;27.30
530;DHT22;251;48.704;9.210;2023-05-31T03:07:17;10.50;27.20
530;DHT22;251;48.704;9.210;2023-05-31T03:09:44;10.40;27.40
530;DHT22;251;48.704;9.210;2023-05-31T03:12:13;10.40;27.10
530;DHT22;251;48.704;9.210;2023-05-31T03:14:40;10.40;28.10
530;DHT22;251;48.704;9.210;2023-05-31T03:17:08;10.40;27.50
530;DHT22;251;48.704;9.210;2023-05-31T03:19:36;10.30;28.00
530;DHT22;251;48.704;9.210;2023-05-31T03:22:04;10.40;28.10
530;DHT22;251;48.704;9.210;2023-05-31T03:24:31;10.40;28.70
530;DHT22;251;48.704;9.210;2023-05-31T03:26:58;10.30;28.70
530;DHT22;251;48.704;9.210;2023-05-31T03:29:28;10.10;29.40
530;DHT22;251;48.704;9.210;2023-05-31T03:31:58;10.20;28.50
530;DHT22;251;48.704;9.210;2023-05-31T03:34:25;10.20;28.60
530;DHT22;251;48.704;9.210;2023-05-31T03:36:52;10.10;28.40
530;DHT22;251;48.704;9.210;2023-05-31T03:39:40;10.00;28.10
530;DHT22;251;48.704;9.210;2023-05-31T03:42:10;9.90;29.20
530;DHT22;251;48.704;9.210;2023-05-31T03:44:38;10.00;29.30
530;DHT22;251;48.704;9.210;2023-05-31T03:47:06;10.00;29.40
530;DHT22;251;48.704;9.210;2023-05-31T03:49:33;9.90;29.60
530;DHT22;251;48.704;9.210;2023-05-31T03:52:00;9.70;29.20
530;DHT22;251;48.704;9.210;2023-05-31T03:54:29;10.10;29.00
530;DHT22;251;48.704;9.210;2023-05-31T03:56:58;9.80;30.00
530;DHT22;251;48.704;9.210;2023-05-31T03:59:26;9.90;30.00
530;DHT22;251;48.704;9.210;2023-05-31T04:01:56;9.70;30.00
530;DHT22;251;48.704;9.210;2023-05-31T04:04:23;10.00;29.90
530;DHT22;251;48.704;9.210;2023-05-31T04:06:50;9.80;30.20
530;DHT22;251;48.704;9.210;2023-05-31T04:09:16;9.80;31.20
530;DHT22;251;48.704;9.210;2023-05-31T04:11:45;9.80;30.40
530;DHT22;251;48.704;9.210;2023-05-31T04:14:12;10.10;29.70
530;DHT22;251;48.704;9.210;2023-05-31T04:16:39;10.10;30.20
530;DHT22;251;48.704;9.210;2023-05-31T04:19:07;10.20;31.10
530;DHT22;251;48.704;9.210;2023-05-31T04:21:34;10.00;31.10
530;DHT22;251;48.704;9.210;2023-05-31T04:24:01;10.40;30.20
530;DHT22;251;48.704;9.210;2023-05-31T04:26:28;10.30;30.70
530;DHT22;251;48.704;9.210;2023-05-31T04:28:58;10.30;29.10
530;DHT22;251;48.704;9.210;2023-05-31T04:31:27;10.50;30.00
530;DHT22;251;48.704;9.210;2023-05-31T04:33:55;10.70;30.50
530;DHT22;251;48.704;9.210;2023-05-31T04:36:27;10.70;30.00
530;DHT22;251;48.704;9.210;2023-05-31T04:38:55;10.80;29.40
530;DHT22;251;48.704;9.210;2023-05-31T04:41:28;10.80;29.40
530;DHT22;251;48.704;9.210;2023-05-31T04:43:56;11.00;29.00
530;DHT22;251;48.704;9.210;2023-05-31T04:46:24;11.10;29.50
530;DHT22;251;48.704;9.210;2023-05-31T04:48:51;11.20;29.70
530;DHT22;251;48.704;9.210;2023-05-31T04:51:19;11.20;29.20
530;DHT22;251;48.704;9.210;2023-05-31T04:53:47;11.20;28.20
530;DHT22;251;48.704;9.210;2023-05-31T04:56:17;11.40;28.00
530;DHT22;251;48.704;9.210;2023-05-31T04:58:44;11.70;27.80
530;DHT22;251;48.704;9.210;2023-05-31T05:01:11;11.50;26.50
530;DHT22;251;48.704;9.210;2023-05-31T05:03:59;11.90;24.70
530;DHT22;251;48.704;9.210;2023-05-31T05:06:28;12.10;24.20
530;DHT22;251;48.704;9.210;2023-05-31T05:08:56;12.20;24.60
530;DHT22;251;48.704;9.210;2023-05-31T05:11:24;12.50;23.00
530;DHT22;251;48.704;9.210;2023-05-31T05:13:51;12.60;17.90
530;DHT22;251;48.704;9.210;2023-05-31T05:16:18;13.00;18.10
530;DHT22;251;48.704;9.210;2023-05-31T05:18:45;13.00;15.10
530;DHT22;251;48.704;9.210;2023-05-31T05:21:12;13.50;13.80
530;DHT22;251;48.704;9.210;2023-05-31T05:23:38;13.20;13.00
530;DHT22;251;48.704;9.210;2023-05-31T05:26:07;13.50;12.70
530;DHT22;251;48.704;9.210;2023-05-31T05:28:34;14.10;11.40
530;DHT22;251;48.704;9.210;2023-05-31T05:31:02;14.10;11.20
530;DHT22;251;48.704;9.210;2023-05-31T05:33:32;14.10;10.40
530;DHT22;251;48.704;9.210;2023-05-31T05:36:02;14.30;11.20
530;DHT22;251;48.704;9.210;2023-05-31T05:38:30;14.40;9.90
530;DHT22;251;48.704;9.210;2023-05-31T05:40:57;14.40;9.20
530;DHT22;251;48.704;9.210;2023-05-31T05:43:25;14.80;8.80
530;DHT22;251;48.704;9.210;2023-05-31T05:46:04;14.60;7.80
530;DHT22;251;48.704;9.210;2023-05-31T05:48:31;15.10;8.00
530;DHT22;251;48.704;9.210;2023-05-31T05:50:59;15.00;6.70
530;DHT22;251;48.704;9.210;2023-05-31T05:53:27;15.20;7.00
530;DHT22;251;48.704;9.210;2023-05-31T05:55:55;15.00;6.90
530;DHT22;251;48.704;9.210;2023-05-31T05:58:27;15.50;5.90
530;DHT22;251;48.704;9.210;2023-05-31T06:01:24;15.40;6.90
530;DHT22;251;48.704;9.210;2023-05-31T06:03:54;15.70;6.40
530;DHT22;251;48.704;9.210;2023-05-31T06:06:21;15.70;4.90
530;DHT22;251;48.704;9.210;2023-05-31T06:08:48;15.90;5.30
530;DHT22;251;48.704;9.210;2023-05-31T06:11:15;15.80;5.40
530;DHT22;251;48.704;9.210;2023-05-31T06:13:45;15.90;5.00
530;DHT22;251;48.704;9.210;2023-05-31T06:16:14;16.00;3.90
530;DHT22;251;48.704;9.210;2023-05-31T06:18:41;16.30;5.30
530;DHT22;251;48.704;9.210;2023-05-31T06:21:08;16.20;4.80
530;DHT22;251;48.704;9.210;2023-05-31T06:23:35;16.40;4.70
530;DHT22;251;48.704;9.210;2023-05-31T06:26:02;16.20;4.10
530;DHT22;251;48.704;9.210;2023-05-31T06:28:29;16.50;4.70
530;DHT22;251;48.704;9.210;2023-05-31T06:30:59;16.80;4.30
530;DHT22;251;48.704;9.210;2023-05-31T06:33:26;16.80;3.40
530;DHT22;251;48.704;9.210;2023-05-31T06:35:53;16.70;3.20
530;DHT22;251;48.704;9.210;2023-05-31T06:38:20;16.90;4.00
530;DHT22;251;48.704;9.210;2023-05-31T06:40:47;17.00;3.50
530;DHT22;251;48.704;9.210;2023-05-31T06:43:15;16.80;2.80
530;DHT22;251;48.704;9.210;2023-05-31T06:46:17;17.00;2.50
530;DHT22;251;48.704;9.210;2023-05-31T06:49:22;17.10;1.90
530;DHT22;251;48.704;9.210;2023-05-31T06:52:05;17.50;3.40
530;DHT22;251;48.704;9.210;2023-05-31T06:54:50;17.10;1.80
530;DHT22;251;48.704;9.210;2023-05-31T06:57:17;17.40;1.80
530;DHT22;251;48.704;9.210;2023-05-31T06:59:44;17.60;2.10
530;DHT22;251;48.704;9.210;2023-05-31T07:02:12;17.80;2.20
530;DHT22;251;48.704;9.210;2023-05-31T07:04:39;17.70;1.50
530;DHT22;251;48.704;9.210;2023-05-31T07:07:07;17.80;2.30
530;DHT22;251;48.704;9.210;2023-05-31T07:09:34;17.80;1.10
530;DHT22;251;48.704;9.210;2023-05-31T07:12:01;18.00;1.30
530;DHT22;251;48.704;9.210;2023-05-31T07:14:31;18.00;1.00
530;DHT22;251;48.704;9.210;2023-05-31T07:16:58;18.10;1.00
530;DHT22;251;48.704;9.210;2023-05-31T07:19:28;18.20;1.30
530;DHT22;251;48.704;9.210;2023-05-31T07:21:55;18.20;1.00
530;DHT22;251;48.704;9.210;2023-05-31T07:24:22;18.30;1.00
530;DHT22;251;48.704;9.210;2023-05-31T07:26:49;18.40;1.00
530;DHT22;251;48.704;9.210;2023-05-31T07:29:16;18.50;1.80
530;DHT22;251;48.704;9.210;2023-05-31T07:31:43;18.50;1.00
530;DHT22;251;48.704;9.210;2023-05-31T07:34:09;18.60;1.00
530;DHT22;251;48.704;9.210;2023-05-31T07:36:37;18.70;1.00
530;DHT22;251;48.704;9.210;2023-05-31T07:39:05;18.90;2.30
530;DHT22;251;48.704;9.210;2023-05-31T07:41:36;19.00;1.00
530;DHT22;251;48.704;9.210;2023-05-31T07:44:03;19.10;1.00
530;DHT22;251;48.704;9.210;2023-05-31T07:46:31;19.20;1.00
530;DHT22;251;48.704;9.210;2023-05-31T07:48:57;19.30;1.00
530;DHT22;251;48.704;9.210;2023-05-31T07:51:24;19.30;1.00
530;DHT22;251;48.704;9.210;2023-05-31T07:53:52;19.40;1.00
530;DHT22;251;48.704;9.210;2023-05-31T07:56:19;19.60;1.00
530;DHT22;251;48.704;9.210;2023-05-31T07:58:46;19.60;1.00
530;DHT22;251;48.704;9.210;2023-05-31T08:01:13;19.70;1.00
530;DHT22;251;48.704;9.210;2023-05-31T08:03:41;19.70;1.00
530;DHT22;251;48.704;9.210;2023-05-31T08:06:08;19.90;1.00
530;DHT22;251;48.704;9.210;2023-05-31T08:08:35;20.00;1.00
530;DHT22;251;48.704;9.210;2023-05-31T08:11:03;20.10;1.00
530;DHT22;251;48.704;9.210;2023-05-31T08:13:30;20.20;1.00
530;DHT22;251;48.704;9.210;2023-05-31T08:15:57;20.40;1.00
530;DHT22;251;48.704;9.210;2023-05-31T08:18:23;20.40;1.00
530;DHT22;251;48.704;9.210;2023-05-31T08:20:50;20.40;1.00
530;DHT22;251;48.704;9.210;2023-05-31T08:23:17;20.50;1.00
530;DHT22;251;48.704;9.210;2023-05-31T08:25:44;20.60;1.00
530;DHT22;251;48.704;9.210;2023-05-31T08:28:12;20.70;1.00
530;DHT22;251;48.704;9.210;2023-05-31T08:30:39;20.80;1.00
530;DHT22;251;48.704;9.210;2023-05-31T08:33:06;20.80;1.00
530;DHT22;251;48.704;9.210;2023-05-31T08:35:33;20.90;1.00
530;DHT22;251;48.704;9.210;2023-05-31T08:37:59;21.00;1.00
530;DHT22;251;48.704;9.210;2023-05-31T08:40:26;21.10;1.00
530;DHT22;251;48.704;9.210;2023-05-31T08:42:58;21.20;1.00
530;DHT22;251;48.704;9.210;2023-05-31T08:45:27;21.30;1.00
530;DHT22;251;48.704;9.210;2023-05-31T08:48:00;21.50;1.00
530;DHT22;251;48.704;9.210;2023-05-31T08:50:31;21.50;1.00
530;DHT22;251;48.704;9.210;2023-05-31T08:52:59;21.70;1.00
530;DHT22;251;48.704;9.210;2023-05-31T08:55:26;21.70;1.00
530;DHT22;251;48.704;9.210;2023-05-31T08:57:54;22.00;1.00
530;DHT22;251;48.704;9.210;2023-05-31T09:00:23;22.00;1.00
530;DHT22;251;48.704;9.210;2023-05-31T09:02:52;22.20;1.00
530;DHT22;251;48.704;9.210;2023-05-31T09:05:19;22.30;1.00
530;DHT22;251;48.704;9.210;2023-05-31T09:07:46;22.40;1.00
530;DHT22;251;48.704;9.210;2023-05-31T09:10:15;22.40;1.00
530;DHT22;251;48.704;9.210;2023-05-31T09:12:42;22.60;1.00
530;DHT22;251;48.704;9.210;2023-05-31T09:15:12;22.70;1.00
530;DHT22;251;48.704;9.210;2023-05-31T09:17:42;22.80;1.00
530;DHT22;251;48.704;9.210;2023-05-31T09:20:11;22.90;1.00
530;DHT22;251;48.704;9.210;2023-05-31T09:22:38;23.10;1.00
530;DHT22;251;48.704;9.210;2023-05-31T09:25:06;23.20;1.00
530;DHT22;251;48.704;9.210;2023-05-31T09:27:37;23.30;1.00
530;DHT22;251;48.704;9.210;2023-05-31T09:30:05;23.40;1.00
530;DHT22;251;48.704;9.210;2023-05-31T09:32:33;23.50;1.00
530;DHT22;251;48.704;9.210;2023-05-31T09:35:12;23.70;1.00
530;DHT22;251;48.704;9.210;2023-05-31T09:37:43;23.80;1.00
530;DHT22;251;48.704;9.210;2023-05-31T09:40:12;24.00;1.00
530;DHT22;251;48.704;9.210;2023-05-31T09:42:46;24.10;1.00
530;DHT22;251;48.704;9.210;2023-05-31T09:45:14;24.20;1.00
530;DHT22;251;48.704;9.210;2023-05-31T09:47:41;24.40;1.00
530;DHT22;251;48.704;9.210;2023-05-31T09:50:10;24.40;1.00
530;DHT22;251;48.704;9.210;2023-05-31T09:52:37;24.50;1.00
530;DHT22;251;48.704;9.210;2023-05-31T09:55:05;24.70;1.00
530;DHT22;251;48.704;9.210;2023-05-31T09:57:34;24.80;1.00
530;DHT22;251;48.704;9.210;2023-05-31T10:00:08;24.90;1.00
530;DHT22;251;48.704;9.210;2023-05-31T10:02:42;24.90;1.00
530;DHT22;251;48.704;9.210;2023-05-31T10:05:11;25.00;1.00
530;DHT22;251;48.704;9.210;2023-05-31T10:07:38;25.00;1.00
530;DHT22;251;48.704;9.210;2023-05-31T10:10:07;25.20;1.00
530;DHT22;251;48.704;9.210;2023-05-31T10:12:37;25.30;1.00
530;DHT22;251;48.704;9.210;2023-05-31T10:15:07;25.30;1.00
530;DHT22;251;48.704;9.210;2023-05-31T10:17:39;25.30;1.00
530;DHT22;251;48.704;9.210;2023-05-31T10:20:13;25.40;1.00
530;DHT22;251;48.704;9.210;2023-05-31T10:22:43;25.70;1.00
530;DHT22;251;48.704;9.210;2023-05-31T10:25:16;25.90;1.00
530;DHT22;251;48.704;9.210;2023-05-31T10:27:44;26.00;1.00
530;DHT22;251;48.704;9.210;2023-05-31T10:30:13;26.00;1.00
530;DHT22;251;48.704;9.210;2023-05-31T10:32:46;26.00;1.00
530;DHT22;251;48.704;9.210;2023-05-31T10:35:18;26.20;1.00
530;DHT22;251;48.704;9.210;2023-05-31T10:37:45;26.50;1.00
530;DHT22;251;48.704;9.210;2023-05-31T10:40:15;27.00;1.00
530;DHT22;251;48.704;9.210;2023-05-31T10:42:50;27.30;1.00
530;DHT22;251;48.704;9.210;2023-05-31T10:45:22;27.80;1.00
530;DHT22;251;48.704;9.210;2023-05-31T10:47:52;28.10;1.00
530;DHT22;251;48.704;9.210;2023-05-31T10:50:21;28.30;1.00
530;DHT22;251;48.704;9.210;2023-05-31T10:52:48;28.40;1.00
530;DHT22;251;48.704;9.210;2023-05-31T10:55:17;28.50;1.00
530;DHT22;251;48.704;9.210;2023-05-31T10:57:44;28.80;1.00
530;DHT22;251;48.704;9.210;2023-05-31T11:00:12;29.10;1.00
530;DHT22;251;48.704;9.210;2023-05-31T11:02:46;29.10;1.00
530;DHT22;251;48.704;9.210;2023-05-31T11:05:21;29.50;1.00
530;DHT22;251;48.704;9.210;2023-05-31T11:07:51;29.60;1.00
530;DHT22;251;48.704;9.210;2023-05-31T11:10:25;29.70;1.00
530;DHT22;251;48.704;9.210;2023-05-31T11:12:55;30.00;1.00
530;DHT22;251;48.704;9.210;2023-05-31T11:15:22;30.20;1.00
530;DHT22;251;48.704;9.210;2023-05-31T11:17:51;30.30;1.00
530;DHT22;251;48.704;9.210;2023-05-31T11:20:20;30.60;1.00
530;DHT22;251;48.704;9.210;2023-05-31T11:22:47;31.00;1.00
530;DHT22;251;48.704;9.210;2023-05-31T11:25:20;31.50;1.00
530;DHT22;251;48.704;9.210;2023-05-31T11:27:47;32.00;1.00
530;DHT22;251;48.704;9.210;2023-05-31T11:30:15;32.20;1.00
530;DHT22;251;48.704;9.210;2023-05-31T11:32:56;32.20;1.00
530;DHT22;251;48.704;9.210;2023-05-31T11:35:25;32.40;1.00
530;DHT22;251;48.704;9.210;2023-05-31T11:38:05;32.60;1.00
530;DHT22;251;48.704;9.210;2023-05-31T11:40:33;33.00;1.00
530;DHT22;251;48.704;9.210;2023-05-31T11:43:06;33.30;1.00
530;DHT22;251;48.704;9.210;2023-05-31T11:45:33;33.50;1.00
530;DHT22;251;48.704;9.210;2023-05-31T11:48:11;33.70;1.00
530;DHT22;251;48.704;9.210;2023-05-31T11:50:42;34.00;1.00
530;DHT22;251;48.704;9.210;2023-05-31T11:53:10;34.20;1.00
530;DHT22;251;48.704;9.210;2023-05-31T11:55:37;34.10;1.00
530;DHT22;251;48.704;9.210;2023-05-31T11:58:05;34.50;1.00
530;DHT22;251;48.704;9.210;2023-05-31T12:00:32;34.80;1.00
530;DHT22;251;48.704;9.210;2023-05-31T12:02:59;35.40;1.00
530;DHT22;251;48.704;9.210;2023-05-31T12:05:31;35.50;1.00
530;DHT22;251;48.704;9.210;2023-05-31T12:07:59;35.20;1.00
530;DHT22;251;48.704;9.210;2023-05-31T12:10:26;35.30;1.00
530;DHT22;251;48.704;9.210;2023-05-31T12:12:53;35.40;1.00
530;DHT22;251;48.704;9.210;2023-05-31T12:15:20;35.30;1.00
530;DHT22;251;48.704;9.210;2023-05-31T12:17:47;35.50;1.00
530;DHT22;251;48.704;9.210;2023-05-31T12:20:14;35.90;1.00
530;DHT22;251;48.704;9.210;2023-05-31T12:22:41;36.00;1.00
530;DHT22;251;48.704;9.210;2023-05-31T12:25:09;36.60;1.00
530;DHT22;251;48.704;9.210;2023-05-31T12:27:36;37.30;1.00
530;DHT22;251;48.704;9.210;2023-05-31T12:30:04;37.40;1.00
530;DHT22;251;48.704;9.210;2023-05-31T12:32:31;37.70;1.00
530;DHT22;251;48.704;9.210;2023-05-31T12:35:05;37.60;1.00
530;DHT22;251;48.704;9.210;2023-05-31T12:37:36;37.70;1.00
530;DHT22;251;48.704;9.210;2023-05-31T12:40:12;37.70;1.00
530;DHT22;251;48.704;9.210;2023-05-31T12:42:39;37.90;1.00
530;DHT22;251;48.704;9.210;2023-05-31T12:45:06;38.10;1.00
530;DHT22;251;48.704;9.210;2023-05-31T12:47:34;38.80;1.00
530;DHT22;251;48.704;9.210;2023-05-31T12:50:02;39.00;1.00
530;DHT22;251;48.704;9.210;2023-05-31T12:52:32;39.20;1.00
530;DHT22;251;48.704;9.210;2023-05-31T12:55:00;39.10;1.00
530;DHT22;251;48.704;9.210;2023-05-31T12:57:29;39.50;1.00
530;DHT22;251;48.704;9.210;2023-05-31T12:59:59;39.40;1.00
530;DHT22;251;48.704;9.210;2023-05-31T13:02:26;39.20;1.00
530;DHT22;251;48.704;9.210;2023-05-31T13:04:54;39.40;1.00
530;DHT22;251;48.704;9.210;2023-05-31T13:07:21;39.80;1.00
530;DHT22;251;48.704;9.210;2023-05-31T13:09:48;40.20;1.00
530;DHT22;251;48.704;9.210;2023-05-31T13:12:15;40.40;1.00
530;DHT22;251;48.704;9.210;2023-05-31T13:14:44;40.30;1.00
530;DHT22;251;48.704;9.210;2023-05-31T13:17:10;40.30;1.00
530;DHT22;251;48.704;9.210;2023-05-31T13:19:37;39.60;1.00
530;DHT22;251;48.704;9.210;2023-05-31T13:22:05;39.70;1.00
530;DHT22;251;48.704;9.210;2023-05-31T13:24:32;40.00;1.00
530;DHT22;251;48.704;9.210;2023-05-31T13:26:59;40.20;1.00
530;DHT22;251;48.704;9.210;2023-05-31T13:29:25;40.50;1.00
530;DHT22;251;48.704;9.210;2023-05-31T13:31:54;40.30;1.00
530;DHT22;251;48.704;9.210;2023-05-31T13:34:21;40.30;1.00
530;DHT22;251;48.704;9.210;2023-05-31T13:36:48;40.60;1.00
530;DHT22;251;48.704;9.210;2023-05-31T13:39:15;40.70;1.00
530;DHT22;251;48.704;9.210;2023-05-31T13:41:43;40.90;1.00
530;DHT22;251;48.704;9.210;2023-05-31T13:44:11;40.90;1.00
530;DHT22;251;48.704;9.210;2023-05-31T13:46:40;40.90;1.00
530;DHT22;251;48.704;9.210;2023-05-31T13:49:08;41.00;1.00
530;DHT22;251;48.704;9.210;2023-05-31T13:51:36;40.20;1.00
530;DHT22;251;48.704;9.210;2023-05-31T13:54:02;39.90;1.00
530;DHT22;251;48.704;9.210;2023-05-31T13:56:29;39.80;1.00
530;DHT22;251;48.704;9.210;2023-05-31T13:58:57;40.00;1.00
530;DHT22;251;48.704;9.210;2023-05-31T14:01:24;40.00;1.00
530;DHT22;251;48.704;9.210;2023-05-31T14:03:51;40.30;1.00
530;DHT22;251;48.704;9.210;2023-05-31T14:06:21;40.40;1.00
530;DHT22;251;48.704;9.210;2023-05-31T14:08:48;40.60;1.00
530;DHT22;251;48.704;9.210;2023-05-31T14:11:15;40.90;1.00
530;DHT22;251;48.704;9.210;2023-05-31T14:13:42;40.90;1.00
530;DHT22;251;48.704;9.210;2023-05-31T14:16:08;40.90;1.00
530;DHT22;251;48.704;9.210;2023-05-31T14:18:35;41.00;1.00
530;DHT22;251;48.704;9.210;2023-05-31T14:21:02;40.90;1.00
530;DHT22;251;48.704;9.210;2023-05-31T14:23:30;41.00;1.00
530;DHT22;251;48.704;9.210;2023-05-31T14:25:57;40.90;1.00
530;DHT22;251;48.704;9.210;2023-05-31T14:28:24;40.70;1.00
530;DHT22;251;48.704;9.210;2023-05-31T14:30:50;40.90;1.00
530;DHT22;251;48.704;9.210;2023-05-31T14:33:17;40.90;1.00
530;DHT22;251;48.704;9.210;2023-05-31T14:35:45;41.00;1.00
530;DHT22;251;48.704;9.210;2023-05-31T14:38:12;40.60;1.00
530;DHT22;251;48.704;9.210;2023-05-31T14:40:40;40.10;1.00
530;DHT22;251;48.704;9.210;2023-05-31T14:43:07;39.40;1.00
530;DHT22;251;48.704;9.210;2023-05-31T14:45:33;38.50;1.00
530;DHT22;251;48.704;9.210;2023-05-31T14:48:01;37.60;1.00
530;DHT22;251;48.704;9.210;2023-05-31T14:50:28;37.10;1.00
530;DHT22;251;48.704;9.210;2023-05-31T14:52:55;36.80;1.00
530;DHT22;251;48.704;9.210;2023-05-31T14:55:22;36.70;1.00
530;DHT22;251;48.704;9.210;2023-05-31T14:57:50;36.70;1.00
530;DHT22;251;48.704;9.210;2023-05-31T15:00:17;36.70;1.00
530;DHT22;251;48.704;9.210;2023-05-31T15:02:44;36.80;1.00
530;DHT22;251;48.704;9.210;2023-05-31T15:05:11;36.60;1.00
530;DHT22;251;48.704;9.210;2023-05-31T15:07:38;36.60;1.00
530;DHT22;251;48.704;9.210;2023-05-31T15:10:05;36.30;1.00
530;DHT22;251;48.704;9.210;2023-05-31T15:12:32;35.70;1.00
530;DHT22;251;48.704;9.210;2023-05-31T15:15:00;35.70;1.00
530;DHT22;251;48.704;9.210;2023-05-31T15:17:27;35.50;1.00
530;DHT22;251;48.704;9.210;2023-05-31T15:19:53;35.30;1.00
530;DHT22;251;48.704;9.210;2023-05-31T15:22:20;35.20;1.00
530;DHT22;251;48.704;9.210;2023-05-31T15:24:47;35.20;1.00
530;DHT22;251;48.704;9.210;2023-05-31T15:27:14;35.30;1.00
530;DHT22;251;48.704;9.210;2023-05-31T15:29:40;35.70;1.00
530;DHT22;251;48.704;9.210;2023-05-31T15:32:09;36.00;1.00
530;DHT22;251;48.704;9.210;2023-05-31T15:34:35;36.40;1.00
530;DHT22;251;48.704;9.210;2023-05-31T15:37:03;36.90;1.00
530;DHT22;251;48.704;9.210;2023-05-31T15:39:29;37.50;1.00
530;DHT22;251;48.704;9.210;2023-05-31T15:41:56;38.00;1.00
530;DHT22;251;48.704;9.210;2023-05-31T15:44:25;38.20;1.00
530;DHT22;251;48.704;9.210;2023-05-31T15:46:52;38.40;1.00
530;DHT22;251;48.704;9.210;2023-05-31T15:49:20;38.50;1.00
530;DHT22;251;48.704;9.210;2023-05-31T15:51:47;38.80;1.00
530;DHT22;251;48.704;9.210;2023-05-31T15:54:14;38.90;1.00
530;DHT22;251;48.704;9.210;2023-05-31T15:56:41;39.30;1.00
530;DHT22;251;48.704;9.210;2023-05-31T15:59:08;39.60;1.00
530;DHT22;251;48.704;9.210;2023-05-31T16:01:34;39.70;1.00
530;DHT22;251;48.704;9.210;2023-05-31T16:04:01;40.00;1.00
530;DHT22;251;48.704;9.210;2023-05-31T16:06:30;40.10;1.00
530;DHT22;251;48.704;9.210;2023-05-31T16:08:57;40.00;1.00
530;DHT22;251;48.704;9.210;2023-05-31T16:11:24;40.20;1.00
530;DHT22;251;48.704;9.210;2023-05-31T16:13:51;40.40;1.00
530;DHT22;251;48.704;9.210;2023-05-31T16:16:18;40.40;1.00
530;DHT22;251;48.704;9.210;2023-05-31T16:18:46;40.60;1.00
530;DHT22;251;48.704;9.210;2023-05-31T16:21:13;40.60;1.00
530;DHT22;251;48.704;9.210;2023-05-31T16:23:42;40.60;1.00
530;DHT22;251;48.704;9.210;2023-05-31T16:26:09;40.30;1.00
530;DHT22;251;48.704;9.210;2023-05-31T16:28:36;40.30;1.00
530;DHT22;251;48.704;9.210;2023-05-31T16:31:02;40.40;1.00
530;DHT22;251;48.704;9.210;2023-05-31T16:33:30;40.10;1.00
530;DHT22;251;48.704;9.210;2023-05-31T16:35:56;40.00;1.00
530;DHT22;251;48.704;9.210;2023-05-31T16:38:23;40.00;1.00
530;DHT22;251;48.704;9.210;2023-05-31T16:40:51;39.70;1.00
530;DHT22;251;48.704;9.210;2023-05-31T16:43:18;39.90;1.00
530;DHT22;251;48.704;9.210;2023-05-31T16:45:45;40.10;1.00
530;DHT22;251;48.704;9.210;2023-05-31T16:48:12;40.20;1.00
530;DHT22;251;48.704;9.210;2023-05-31T16:54:07;40.40;1.00
530;DHT22;251;48.704;9.210;2023-05-31T16:56:36;40.10;1.00
530;DHT22;251;48.704;9.210;2023-05-31T17:02:50;40.00;1.00
530;DHT22;251;48.704;9.210;2023-05-31T17:05:18;40.20;1.00
530;DHT22;251;48.704;9.210;2023-05-31T17:07:44;39.90;1.00
530;DHT22;251;48.704;9.210;2023-05-31T17:10:11;39.70;1.00
530;DHT22;251;48.704;9.210;2023-05-31T17:12:39;39.50;1.00
530;DHT22;251;48.704;9.210;2023-05-31T17:42:00;36.60;1.00
530;DHT22;251;48.704;9.210;2023-05-31T17:44:27;36.10;1.00